createdAt,value
2023-02-19T00:01:54.748Z,100254.81
2023-02-19T00:04:23.851Z,100256.69
2023-02-19T00:06:52.437Z,100264.06
2023-02-19T00:09:21.649Z,100260.66
2023-02-19T00:11:50.364Z,100258.94
2023-02-19T00:14:20.615Z,100251.16
2023-02-19T00:16:49.552Z,100255.81
2023-02-19T00:19:21.144Z,100259.50
2023-02-19T00:21:51.908Z,100257.94
2023-02-19T00:24:20.711Z,100263.47
2023-02-19T00:26:49.355Z,100253.66
2023-02-19T00:29:19.928Z,100242.16
2023-02-19T00:31:48.203Z,100242.25
2023-02-19T00:34:16.419Z,100246.94
2023-02-19T00:36:46.030Z,100245.25
2023-02-19T00:39:18.262Z,100253.63
2023-02-19T00:41:47.523Z,100242.97
2023-02-19T00:44:15.709Z,100250.31
2023-02-19T00:46:45.928Z,100245.91
2023-02-19T00:49:18.908Z,100254.00
2023-02-19T00:51:49.144Z,100245.50
2023-02-19T00:54:18.175Z,100251.13
2023-02-19T00:56:46.357Z,100259.13
2023-02-19T00:59:14.559Z,100260.97
2023-02-19T01:01:44.788Z,100264.75
2023-02-19T01:04:13.402Z,100265.88
2023-02-19T01:06:42.094Z,100258.66
2023-02-19T01:09:11.620Z,100266.88
2023-02-19T01:11:39.744Z,100252.56
2023-02-19T01:14:07.988Z,100260.03
2023-02-19T01:16:36.247Z,100250.13
2023-02-19T01:19:04.677Z,100256.50
2023-02-19T01:21:33.132Z,100249.41
2023-02-19T01:24:01.263Z,100242.44
2023-02-19T01:26:33.151Z,100250.53
2023-02-19T01:29:02.248Z,100240.88
2023-02-19T01:31:30.988Z,100238.31
2023-02-19T01:34:01.649Z,100242.88
2023-02-19T01:36:31.025Z,100236.63
2023-02-19T01:39:03.799Z,100250.09
2023-02-19T01:41:35.460Z,100239.41
2023-02-19T01:44:07.808Z,100249.34
2023-02-19T01:46:37.193Z,100251.34
2023-02-19T01:49:08.966Z,100250.63
2023-02-19T01:51:39.229Z,100246.09
2023-02-19T01:54:09.733Z,100240.84
2023-02-19T01:56:43.346Z,100250.91
2023-02-19T01:59:12.593Z,100245.63
2023-02-19T02:01:42.240Z,100246.47
2023-02-19T02:04:13.009Z,100244.78
2023-02-19T02:06:48.046Z,100228.88
2023-02-19T02:09:34.741Z,100223.50
2023-02-19T02:12:04.293Z,100226.31
2023-02-19T02:14:35.412Z,100224.47
2023-02-19T02:17:15.452Z,100230.88
2023-02-19T02:20:02.946Z,100229.16
2023-02-19T02:22:37.132Z,100223.75
2023-02-19T02:25:30.861Z,100189.97
2023-02-19T02:28:18.177Z,100209.81
2023-02-19T02:30:51.195Z,100209.69
2023-02-19T02:33:26.372Z,100215.22
2023-02-19T02:35:59.734Z,100213.50
2023-02-19T02:38:31.320Z,100211.81
2023-02-19T02:41:01.101Z,100213.78
2023-02-19T02:43:29.316Z,100220.03
2023-02-19T02:45:58.981Z,100222.88
2023-02-19T02:48:37.059Z,100218.47
2023-02-19T02:51:13.949Z,100222.25
2023-02-19T02:54:13.477Z,100231.19
2023-02-19T02:56:44.093Z,100233.19
2023-02-19T02:59:14.850Z,100236.00
2023-02-19T03:02:05.508Z,100236.84
2023-02-19T03:05:00.271Z,100235.28
2023-02-19T03:07:32.385Z,100246.06
2023-02-19T03:10:04.180Z,100241.69
2023-02-19T03:12:52.424Z,100231.03
2023-02-19T03:15:45.789Z,100243.50
2023-02-19T03:18:35.810Z,100239.13
2023-02-19T03:21:07.563Z,100239.22
2023-02-19T03:23:56.002Z,100236.66
2023-02-19T03:26:26.671Z,100236.66
2023-02-19T03:29:12.515Z,100246.72
2023-02-19T03:31:44.583Z,100249.41
2023-02-19T03:34:20.704Z,100247.13
2023-02-19T03:36:59.106Z,100253.09
2023-02-19T03:39:27.706Z,100245.31
2023-02-19T03:42:04.552Z,100242.59
2023-02-19T03:44:42.131Z,100254.22
2023-02-19T03:47:17.238Z,100251.66
2023-02-19T03:49:51.293Z,100256.06
2023-02-19T03:52:25.834Z,100264.25
2023-02-19T03:54:58.554Z,100266.94
2023-02-19T03:57:35.849Z,100264.41
2023-02-19T04:00:11.789Z,100252.78
2023-02-19T04:02:45.334Z,100249.22
2023-02-19T04:05:18.001Z,100244.09
2023-02-19T04:07:50.034Z,100251.91
2023-02-19T04:10:19.908Z,100246.66
2023-02-19T04:12:51.634Z,100240.56
2023-02-19T04:15:23.293Z,100252.19
2023-02-19T04:17:57.106Z,100249.38
2023-02-19T04:20:30.239Z,100254.88
2023-02-19T04:22:59.235Z,100246.81
2023-02-19T04:25:28.888Z,100251.47
2023-02-19T04:27:57.091Z,100251.34
2023-02-19T04:30:25.319Z,100254.16
2023-02-19T04:32:53.468Z,100252.47
2023-02-19T04:35:21.816Z,100248.78
2023-02-19T04:37:51.344Z,100256.22
2023-02-19T04:40:19.798Z,100240.91
2023-02-19T04:42:47.937Z,100247.28
2023-02-19T04:45:16.115Z,100255.25
2023-02-19T04:47:44.337Z,100245.44
2023-02-19T04:50:12.496Z,100236.50
2023-02-19T04:52:40.708Z,100249.97
2023-02-19T04:55:11.229Z,100249.25
2023-02-19T04:57:39.334Z,100244.72
2023-02-19T05:00:09.324Z,100240.19
2023-02-19T05:02:37.720Z,100231.41
2023-02-19T05:05:06.028Z,100232.25
2023-02-19T05:07:35.390Z,100233.38
2023-02-19T05:10:03.689Z,100221.13
2023-02-19T05:12:33.385Z,100235.31
2023-02-19T05:15:01.491Z,100225.69
2023-02-19T05:17:29.650Z,100241.59
2023-02-19T05:19:58.056Z,100236.22
2023-02-19T05:22:26.226Z,100239.84
2023-02-19T05:24:54.259Z,100230.47
2023-02-19T05:27:22.367Z,100242.69
2023-02-19T05:29:53.179Z,100238.69
2023-02-19T05:32:21.372Z,100245.50
2023-02-19T05:34:49.569Z,100244.78
2023-02-19T05:37:17.782Z,100242.09
2023-02-19T05:39:51.901Z,100247.50
2023-02-19T05:42:20.774Z,100252.03
2023-02-19T05:44:48.921Z,100225.38
2023-02-19T05:47:18.486Z,100232.47
2023-02-19T05:49:48.428Z,100235.25
2023-02-19T05:52:16.420Z,100243.34
2023-02-19T05:54:44.576Z,100245.16
2023-02-19T05:57:12.632Z,100232.69
2023-02-19T05:59:41.129Z,100235.53
2023-02-19T06:02:11.094Z,100239.91
2023-02-19T06:04:40.616Z,100248.97
2023-02-19T06:07:08.833Z,100253.38
2023-02-19T06:09:37.260Z,100262.44
2023-02-19T06:12:05.918Z,100258.06
2023-02-19T06:14:34.016Z,100266.13
2023-02-19T06:17:02.179Z,100255.34
2023-02-19T06:19:30.899Z,100250.09
2023-02-19T06:22:00.418Z,100244.59
2023-02-19T06:24:28.663Z,100240.19
2023-02-19T06:26:56.747Z,100229.56
2023-02-19T06:29:25.031Z,100217.09
2023-02-19T06:31:53.541Z,100232.25
2023-02-19T06:34:21.712Z,100230.53
2023-02-19T06:36:50.613Z,100226.16
2023-02-19T06:39:20.133Z,100223.31
2023-02-19T06:41:48.500Z,100218.94
2023-02-19T06:44:16.842Z,100219.91
2023-02-19T06:46:45.016Z,100214.63
2023-02-19T06:49:13.288Z,100221.00
2023-02-19T06:51:41.574Z,100219.03
2023-02-19T06:54:09.883Z,100235.19
2023-02-19T06:56:40.776Z,100237.16
2023-02-19T06:59:12.326Z,100233.47
2023-02-19T07:01:41.457Z,100220.16
2023-02-19T07:04:09.724Z,100227.25
2023-02-19T07:06:38.913Z,100226.38
2023-02-19T07:09:08.656Z,100237.16
2023-02-19T07:11:40.014Z,100233.59
2023-02-19T07:14:09.757Z,100239.00
2023-02-19T07:16:39.010Z,100237.16
2023-02-19T07:19:07.211Z,100238.13
2023-02-19T07:21:37.757Z,100233.75
2023-02-19T07:24:06.901Z,100236.31
2023-02-19T07:26:35.388Z,100230.91
2023-02-19T07:29:05.036Z,100221.28
2023-02-19T07:31:33.442Z,100230.06
2023-02-19T07:34:01.673Z,100227.38
2023-02-19T07:36:29.780Z,100220.28
2023-02-19T07:38:58.983Z,100223.84
2023-02-19T07:41:28.325Z,100215.88
2023-02-19T07:43:58.064Z,100208.66
2023-02-19T07:46:27.644Z,100211.34
2023-02-19T07:48:56.259Z,100211.34
2023-02-19T07:51:24.637Z,100217.59
2023-02-19T07:53:53.146Z,100214.19
2023-02-19T07:56:21.382Z,100222.13
2023-02-19T07:58:49.607Z,100232.03
2023-02-19T08:01:19.631Z,100233.75
2023-02-19T08:03:50.577Z,100228.38
2023-02-19T08:06:18.764Z,100231.91
2023-02-19T08:08:46.841Z,100242.53
2023-02-19T08:11:32.295Z,100243.78
2023-02-19T08:14:00.439Z,100247.91
2023-02-19T08:16:41.928Z,100253.31
2023-02-19T08:19:12.568Z,100249.91
2023-02-19T08:21:41.094Z,100250.03
2023-02-19T08:24:09.354Z,100260.53
2023-02-19T08:26:42.932Z,100258.81
2023-02-19T08:29:11.212Z,100256.97
2023-02-19T08:31:39.551Z,100262.38
2023-02-19T08:34:07.666Z,100261.50
2023-02-19T08:36:37.159Z,100270.44
2023-02-19T08:39:05.380Z,100274.13
2023-02-19T08:41:33.496Z,100264.22
2023-02-19T08:44:01.582Z,100242.53
2023-02-19T08:46:29.736Z,100243.66
2023-02-19T08:48:58.295Z,100247.19
2023-02-19T08:51:26.458Z,100244.38
2023-02-19T08:53:55.991Z,100236.56
2023-02-19T08:56:24.122Z,100241.69
2023-02-19T08:58:52.648Z,100230.06
2023-02-19T09:01:21.009Z,100242.53
2023-02-19T09:03:49.241Z,100244.25
2023-02-19T09:06:19.199Z,100232.03
2023-02-19T09:08:47.470Z,100239.84
2023-02-19T09:11:17.166Z,100233.38
2023-02-19T09:13:45.996Z,100245.94
2023-02-19T09:16:14.087Z,100238.63
2023-02-19T09:18:42.235Z,100228.72
2023-02-19T09:21:10.734Z,100220.00
2023-02-19T09:23:39.242Z,100232.13
2023-02-19T09:26:10.160Z,100232.97
2023-02-19T09:28:41.973Z,100231.25
2023-02-19T09:31:12.748Z,100228.28
2023-02-19T09:33:44.382Z,100234.41
2023-02-19T09:36:13.231Z,100232.47
2023-02-19T09:38:41.590Z,100223.38
2023-02-19T09:41:15.419Z,100228.63
2023-02-19T09:43:45.686Z,100207.69
2023-02-19T09:46:26.393Z,100207.69
2023-02-19T09:49:04.553Z,100222.59
2023-02-19T09:51:35.682Z,100203.63
2023-02-19T09:54:07.242Z,100199.94
2023-02-19T09:56:35.941Z,100196.88
2023-02-19T09:59:07.142Z,100185.84
2023-02-19T10:01:40.568Z,100190.38
2023-02-19T10:04:10.916Z,100185.56
2023-02-19T10:06:39.144Z,100180.91
2023-02-19T10:09:21.177Z,100175.97
2023-02-19T10:11:51.023Z,100162.81
2023-02-19T10:14:29.445Z,100155.91
2023-02-19T10:17:00.767Z,100148.97
2023-02-19T10:19:30.003Z,100143.91
2023-02-19T10:21:58.186Z,100142.63
2023-02-19T10:24:30.452Z,100145.50
2023-02-19T10:26:58.755Z,100127.19
2023-02-19T10:29:28.487Z,100129.50
2023-02-19T10:32:21.097Z,100112.19
2023-02-19T10:34:50.066Z,100117.56
2023-02-19T10:37:19.502Z,100103.97
2023-02-19T10:39:51.775Z,100104.66
2023-02-19T10:42:22.811Z,100093.88
2023-02-19T10:44:58.570Z,100100.84
2023-02-19T10:47:28.239Z,100079.84
2023-02-19T10:49:59.492Z,100085.94
2023-02-19T10:52:30.868Z,100078.56
2023-02-19T10:55:18.429Z,100077.47
2023-02-19T10:57:46.987Z,100078.72
2023-02-19T11:00:26.874Z,100056.88
2023-02-19T11:03:23.846Z,100043.09
2023-02-19T11:05:58.867Z,100053.34
2023-02-19T11:08:27.321Z,100051.22
2023-02-19T11:10:56.237Z,100033.19
2023-02-19T11:13:30.444Z,100023.53
2023-02-19T11:16:01.215Z,100028.63
2023-02-19T11:18:32.462Z,100015.00
2023-02-19T11:21:03.144Z,100055.91
2023-02-19T11:23:35.276Z,100033.19
2023-02-19T11:26:06.427Z,100024.63
2023-02-19T11:28:37.400Z,100047.66
2023-02-19T11:31:24.051Z,100015.81
2023-02-19T11:33:56.988Z,100011.00
2023-02-19T11:36:30.322Z,100001.06
2023-02-19T11:39:00.838Z,100001.59
2023-02-19T11:41:59.907Z,100009.41
2023-02-19T11:44:40.495Z,100008.41
2023-02-19T11:47:45.126Z,100013.22
2023-02-19T11:50:22.784Z,100008.50
2023-02-19T11:53:07.943Z,99994.75
2023-02-19T11:55:53.011Z,99961.34
2023-02-19T11:58:48.109Z,99978.78
2023-02-19T12:01:24.759Z,99980.34
2023-02-19T12:04:21.950Z,99978.19
2023-02-19T12:07:01.853Z,99996.78
2023-02-19T12:09:41.674Z,99980.44
2023-02-19T12:12:25.644Z,99978.31
2023-02-19T12:15:32.172Z,99983.41
2023-02-19T12:18:34.804Z,99980.53
2023-02-19T12:21:19.252Z,99985.53
2023-02-19T12:24:02.474Z,99975.41
2023-02-19T12:26:35.284Z,99955.81
2023-02-19T12:29:22.395Z,99961.59
2023-02-19T12:32:27.293Z,99973.81
2023-02-19T12:35:25.578Z,99974.94
2023-02-19T12:38:03.998Z,99981.63
2023-02-19T12:40:44.666Z,99998.38
2023-02-19T12:43:19.016Z,99990.16
2023-02-19T12:45:52.565Z,99999.22
2023-02-19T12:48:29.642Z,99997.94
2023-02-19T12:51:03.814Z,99999.97
2023-02-19T12:53:41.180Z,100012.75
2023-02-19T12:56:14.948Z,100008.50
2023-02-19T12:58:47.581Z,100012.50
2023-02-19T13:01:22.243Z,100018.88
2023-02-19T13:03:55.803Z,100019.88
2023-02-19T13:06:36.778Z,100010.22
2023-02-19T13:09:14.237Z,100011.22
2023-02-19T13:11:46.461Z,100007.66
2023-02-19T13:14:23.465Z,99998.56
2023-02-19T13:17:01.307Z,100000.69
2023-02-19T13:19:31.550Z,100002.25
2023-02-19T13:22:27.635Z,100019.00
2023-02-19T13:24:58.424Z,100019.00
2023-02-19T13:27:54.347Z,100018.88
2023-02-19T13:31:04.253Z,100024.66
2023-02-19T13:33:45.192Z,100031.75
2023-02-19T13:36:17.860Z,100009.59
2023-02-19T13:38:48.268Z,100005.06
2023-02-19T13:41:29.486Z,100024.28
2023-02-19T13:44:01.707Z,100040.59
2023-02-19T13:46:42.730Z,100041.75
2023-02-19T13:49:49.431Z,100036.66
2023-02-19T13:52:40.529Z,100031.53
2023-02-19T13:55:49.695Z,100033.53
2023-02-19T13:58:51.196Z,100047.19
2023-02-19T14:01:41.423Z,100055.75
2023-02-19T14:04:21.076Z,100060.44
2023-02-19T14:07:46.371Z,100076.06
2023-02-19T14:10:36.147Z,100080.78
2023-02-19T14:13:04.304Z,100088.34
2023-02-19T14:15:44.189Z,100092.00
2023-02-19T14:18:46.239Z,100094.16
2023-02-19T14:21:23.507Z,100101.25
2023-02-19T14:23:53.984Z,100108.81
2023-02-19T14:26:23.215Z,100106.41
2023-02-19T14:28:53.879Z,100119.19
2023-02-19T14:31:33.309Z,100116.63
2023-02-19T14:34:06.658Z,100125.44
2023-02-19T14:36:48.620Z,100114.63
2023-02-19T14:39:20.894Z,100129.41
2023-02-19T14:41:52.017Z,100143.06
2023-02-19T14:44:25.008Z,100146.63
2023-02-19T14:46:58.537Z,100144.75
2023-02-19T14:49:31.836Z,100149.47
2023-02-19T14:52:01.035Z,100157.41
2023-02-19T14:54:40.135Z,100137.66
2023-02-19T14:57:16.121Z,100140.50
2023-02-19T14:59:55.377Z,100137.09
2023-02-19T15:02:25.955Z,100149.72
2023-02-19T15:04:56.491Z,100137.38
2023-02-19T15:07:27.634Z,100153.56
2023-02-19T15:10:03.662Z,100147.47
2023-02-19T15:12:37.368Z,100152.19
2023-02-19T15:15:08.328Z,100157.84
2023-02-19T15:17:41.734Z,100159.84
2023-02-19T15:20:18.450Z,100167.09
2023-02-19T15:22:47.376Z,100158.44
2023-02-19T15:25:19.187Z,100145.19
2023-02-19T15:27:49.346Z,100145.34
2023-02-19T15:30:22.984Z,100139.09
2023-02-19T15:32:55.827Z,100130.44
2023-02-19T15:35:27.462Z,100135.16
2023-02-19T15:37:56.535Z,100128.00
2023-02-19T15:40:30.948Z,100114.66
2023-02-19T15:43:01.476Z,100126.59
2023-02-19T15:45:33.337Z,100141.66
2023-02-19T15:48:06.580Z,100144.66
2023-02-19T15:50:38.771Z,100149.34
2023-02-19T15:53:13.617Z,100151.34
2023-02-19T15:55:46.042Z,100157.84
2023-02-19T15:58:19.071Z,100166.25
2023-02-19T16:00:48.609Z,100188.81
2023-02-19T16:03:21.012Z,100201.59
2023-02-19T16:06:01.408Z,100192.78
2023-02-19T16:08:31.998Z,100185.97
2023-02-19T16:11:02.287Z,100197.59
2023-02-19T16:13:32.093Z,100203.00
2023-02-19T16:16:04.823Z,100203.00
2023-02-19T16:18:34.004Z,100201.31
2023-02-19T16:21:09.331Z,100199.59
2023-02-19T16:23:43.516Z,100198.91
2023-02-19T16:26:13.061Z,100208.69
2023-02-19T16:28:42.909Z,100219.63
2023-02-19T16:31:14.604Z,100219.03
2023-02-19T16:33:46.126Z,100224.72
2023-02-19T16:36:35.492Z,100235.75
2023-02-19T16:39:24.504Z,100228.06
2023-02-19T16:42:15.558Z,100244.84
2023-02-19T16:44:48.048Z,100249.25
2023-02-19T16:47:32.730Z,100224.81
2023-02-19T16:50:05.928Z,100225.97
2023-02-19T16:52:42.328Z,100229.63
2023-02-19T16:55:14.666Z,100213.88
2023-02-19T16:57:45.774Z,100233.88
2023-02-19T17:00:18.626Z,100240.53
2023-02-19T17:02:48.409Z,100249.03
2023-02-19T17:05:18.266Z,100239.38
2023-02-19T17:07:49.000Z,100252.41
2023-02-19T17:10:19.528Z,100268.31
2023-02-19T17:12:48.215Z,100252.59
2023-02-19T17:15:16.839Z,100262.81
2023-02-19T17:17:45.892Z,100267.38
2023-02-19T17:20:24.204Z,100270.03
2023-02-19T17:22:55.279Z,100263.81
2023-02-19T17:25:24.346Z,100259.28
2023-02-19T17:27:52.948Z,100256.72
2023-02-19T17:30:27.928Z,100262.28
2023-02-19T17:32:56.489Z,100274.66
2023-02-19T17:35:25.352Z,100278.06
2023-02-19T17:38:09.566Z,100271.69
2023-02-19T17:40:38.658Z,100273.53
2023-02-19T17:43:08.014Z,100291.63
2023-02-19T17:45:36.647Z,100294.47
2023-02-19T17:48:06.699Z,100306.09
2023-02-19T17:50:35.460Z,100308.78
2023-02-19T17:53:05.418Z,100307.63
2023-02-19T17:55:34.596Z,100305.75
2023-02-19T17:58:06.172Z,100320.25
2023-02-19T18:00:35.364Z,100308.72
2023-02-19T18:03:05.535Z,100315.94
2023-02-19T18:05:34.017Z,100319.19
2023-02-19T18:08:02.432Z,100327.59
2023-02-19T18:10:32.745Z,100336.25
2023-02-19T18:13:01.313Z,100332.84
2023-02-19T18:15:32.735Z,100346.22
2023-02-19T18:18:01.129Z,100349.06
2023-02-19T18:20:31.536Z,100362.75
2023-02-19T18:23:00.128Z,100369.28
2023-02-19T18:25:34.153Z,100368.72
2023-02-19T18:28:02.674Z,100375.28
2023-02-19T18:30:31.340Z,100391.78
2023-02-19T18:32:59.771Z,100390.41
2023-02-19T18:35:28.022Z,100398.09
2023-02-19T18:37:56.677Z,100401.22
2023-02-19T18:40:26.472Z,100417.75
2023-02-19T18:42:56.464Z,100433.38
2023-02-19T18:45:28.146Z,100424.88
2023-02-19T18:47:56.579Z,100433.28
2023-02-19T18:50:25.021Z,100419.31
2023-02-19T18:52:53.545Z,100435.97
2023-02-19T18:55:21.700Z,100444.66
2023-02-19T18:57:50.352Z,100446.78
2023-02-19T19:00:25.543Z,100466.97
2023-02-19T19:02:57.860Z,100457.59
2023-02-19T19:05:26.989Z,100448.31
2023-02-19T19:07:59.526Z,100447.63
2023-02-19T19:10:30.990Z,100449.56
2023-02-19T19:12:59.662Z,100455.41
2023-02-19T19:15:29.481Z,100435.31
2023-02-19T19:17:59.832Z,100446.25
2023-02-19T19:20:29.155Z,100435.88
2023-02-19T19:22:57.600Z,100429.19
2023-02-19T19:25:26.029Z,100429.31
2023-02-19T19:27:56.908Z,100408.97
2023-02-19T19:30:26.626Z,100401.16
2023-02-19T19:32:57.445Z,100417.66
2023-02-19T19:35:28.581Z,100423.44
2023-02-19T19:37:56.934Z,100443.47
2023-02-19T19:40:25.960Z,100426.81
2023-02-19T19:42:54.344Z,100415.59
2023-02-19T19:45:33.577Z,100457.34
2023-02-19T19:48:05.315Z,100472.81
2023-02-19T19:50:34.008Z,100452.63
2023-02-19T19:53:02.491Z,100462.13
2023-02-19T19:55:31.007Z,100473.91
2023-02-19T19:58:00.566Z,100481.44
2023-02-19T20:00:29.154Z,100486.22
2023-02-19T20:02:57.850Z,100498.28
2023-02-19T20:05:31.563Z,100522.84
2023-02-19T20:08:00.307Z,100529.19
2023-02-19T20:10:28.735Z,100544.28
2023-02-19T20:12:57.173Z,100545.72
2023-02-19T20:15:25.649Z,100542.66
2023-02-19T20:17:54.159Z,100565.00
2023-02-19T20:20:22.706Z,100556.84
2023-02-19T20:22:53.058Z,100569.66
2023-02-19T20:25:23.238Z,100574.28
2023-02-19T20:27:55.920Z,100577.16
2023-02-19T20:30:26.023Z,100592.28
2023-02-19T20:32:55.143Z,100592.22
2023-02-19T20:35:26.514Z,100594.94
2023-02-19T20:37:56.159Z,100616.31
2023-02-19T20:40:27.454Z,100622.63
2023-02-19T20:42:56.001Z,100614.66
2023-02-19T20:45:24.616Z,100622.94
2023-02-19T20:47:53.140Z,100626.66
2023-02-19T20:50:23.290Z,100623.41
2023-02-19T20:52:51.680Z,100639.06
2023-02-19T20:55:21.534Z,100626.69
2023-02-19T20:57:49.642Z,100633.13
2023-02-19T21:00:22.446Z,100636.13
2023-02-19T21:02:51.672Z,100629.44
2023-02-19T21:05:20.078Z,100635.44
2023-02-19T21:07:48.434Z,100624.75
2023-02-19T21:10:20.989Z,100639.16
2023-02-19T21:12:50.643Z,100649.13
2023-02-19T21:15:20.111Z,100633.13
2023-02-19T21:17:49.117Z,100638.84
2023-02-19T21:20:18.877Z,100632.13
2023-02-19T21:22:47.433Z,100646.78
2023-02-19T21:25:15.672Z,100650.03
2023-02-19T21:27:45.140Z,100641.50
2023-02-19T21:30:14.558Z,100629.78
2023-02-19T21:32:42.699Z,100641.75
2023-02-19T21:35:10.861Z,100649.56
2023-02-19T21:37:42.812Z,100651.81
2023-02-19T21:40:14.399Z,100639.81
2023-02-19T21:42:42.578Z,100656.47
2023-02-19T21:45:12.276Z,100648.03
2023-02-19T21:47:40.481Z,100641.59
2023-02-19T21:50:09.592Z,100639.31
2023-02-19T21:52:37.945Z,100648.94
2023-02-19T21:55:07.440Z,100645.03
2023-02-19T21:57:35.702Z,100640.19
2023-02-19T22:00:05.641Z,100641.69
2023-02-19T22:02:38.040Z,100637.81
2023-02-19T22:05:06.746Z,100648.28
2023-02-19T22:07:34.978Z,100651.38
2023-02-19T22:10:09.865Z,100655.34
2023-02-19T22:12:40.967Z,100658.56
2023-02-19T22:15:09.498Z,100664.47
2023-02-19T22:17:39.492Z,100659.88
2023-02-19T22:20:08.742Z,100681.72
2023-02-19T22:22:36.975Z,100673.16
2023-02-19T22:25:05.322Z,100687.03
2023-02-19T22:27:33.473Z,100692.84
2023-02-19T22:30:02.415Z,100684.38
2023-02-19T22:32:31.295Z,100699.97
2023-02-19T22:35:00.892Z,100714.69
2023-02-19T22:37:29.739Z,100721.41
2023-02-19T22:39:57.886Z,100711.00
2023-02-19T22:42:26.014Z,100726.69
2023-02-19T22:44:54.090Z,100727.94
2023-02-19T22:47:22.405Z,100732.88
2023-02-19T22:49:52.688Z,100731.41
2023-02-19T22:52:24.032Z,100730.78
2023-02-19T22:54:53.697Z,100727.72
2023-02-19T22:57:21.961Z,100741.34
2023-02-19T22:59:50.125Z,100759.59
2023-02-19T23:02:18.764Z,100765.22
2023-02-19T23:04:46.944Z,100773.56
2023-02-19T23:07:15.124Z,100766.81
2023-02-19T23:09:46.048Z,100771.59
2023-02-19T23:12:14.245Z,100785.22
2023-02-19T23:14:42.800Z,100790.94
2023-02-19T23:17:11.031Z,100808.34
2023-02-19T23:19:39.550Z,100787.97
2023-02-19T23:22:07.904Z,100795.34
2023-02-19T23:24:36.346Z,100812.75
2023-02-19T23:27:05.864Z,100824.63
2023-02-19T23:29:33.986Z,100822.88
2023-02-19T23:32:02.364Z,100829.38
2023-02-19T23:34:30.736Z,100840.50
2023-02-19T23:36:59.595Z,100832.56
2023-02-19T23:39:27.909Z,100826.66
2023-02-19T23:41:58.375Z,100832.28
2023-02-19T23:44:28.219Z,100841.34
2023-02-19T23:46:56.380Z,100847.78
2023-02-19T23:49:24.939Z,100857.81
2023-02-19T23:51:53.199Z,100852.66
2023-02-19T23:54:21.639Z,100866.25
2023-02-19T23:56:53.110Z,100868.16
2023-02-19T23:59:21.232Z,100873.81
